Tuesday, October 16, 2018, 6:34 AM EDT
Back to Local

KAVP, Wilkes-barre/scranton International

Location: Pittston, PA, United States Lat: 41.333
Local Time: 6:34 AM EDT (10:34 GMT) Lon: -75.733
Time Zone: US/Eastern Elev: 961 ft

Show me the last for .
Show Decoded

2018-10-16 05:54 METAR KAVP 160954Z AUTO 30004KT 10SM CLR 05/M01 A3015 RMK AO2 SLP210 T00501011 =
2018-10-16 04:54 METAR KAVP 160854Z AUTO 34009KT 10SM CLR 05/M01 A3014 RMK AO2 SLP207 T00501006
                 53027 =
2018-10-16 03:54 METAR KAVP 160754Z AUTO 32011G21KT 10SM CLR 07/M01 A3011 RMK AO2 SLP195
                 T00671006 =
2018-10-16 02:54 METAR KAVP 160654Z AUTO 35011G20KT 10SM BKN043 09/03 A3008 RMK AO2 SLP186
                 T00890028 =
2018-10-16 01:54 METAR KAVP 160554Z 32011G20KT 10SM FEW042 11/03 A3006 RMK AO2 SLP178 60003
                 T01060028 10172 20106 51028 =
2018-10-16 00:54 METAR KAVP 160454Z 31012G21KT 10SM BKN035 OVC046 12/04 A3004 RMK AO2 SLP170
                 T01170039 401830067 =
2018-10-15 23:54 METAR KAVP 160354Z 27010KT 10SM SCT055 OVC095 13/08 A3000 RMK AO2 SLP158
                 T01280083 =
2018-10-15 23:24 METAR KAVP 160324Z 29011G19KT 10SM SCT022 OVC042 13/09 A2999 RMK AO2 T01330089 =
2018-10-15 22:54 METAR KAVP 160254Z 28008KT 10SM BKN024 BKN031 OVC050 13/11 A2998 RMK AO2 RAE38
                 SLP149 P0000 60003 T01330111 51022 =
2018-10-15 22:52 METAR KAVP 160252Z 26009G16KT 10SM BKN024 BKN031 OVC050 14/11 A2998 RMK AO2
                 RAE38 P0000 =
2018-10-15 22:42 METAR KAVP 160242Z 23008KT 10SM FEW021 BKN030 OVC038 14/12 A2996 RMK AO2 RAE38
                 P0000 T01390117 =
2018-10-15 22:25 METAR KAVP 160225Z 24009KT 9SM -RA SCT021 BKN027 OVC034 14/11 A2996 RMK AO2
                 P0000 T01390111 =
2018-10-15 21:54 METAR KAVP 160154Z 23010G19KT 10SM -RA FEW020 BKN032 OVC060 14/12 A2994 RMK AO2
                 RAB06E32B52 SLP135 P0001 T01440117 =
2018-10-15 21:35 METAR KAVP 160135Z 22009KT 10SM FEW020 BKN027 OVC047 15/14 A2993 RMK AO2
                 RAB06E32 P0001 T01500139 =
2018-10-15 21:12 METAR KAVP 160112Z 23007G16KT 9SM -RA FEW014 BKN032 OVC044 16/14 A2992 RMK AO2
                 RAB06 P0000 T01560144 =
2018-10-15 20:54 METAR KAVP 160054Z 24009G18KT 10SM SCT014 BKN022 OVC045 16/14 A2991 RMK AO2
                 RAB00E33 SLP125 P0002 T01610144 =
2018-10-15 20:51 METAR KAVP 160051Z 24009G18KT 10SM SCT014 BKN022 OVC045 16/14 A2991 RMK AO2
                 RAB00E33 P0002 =
2018-10-15 20:31 METAR KAVP 160031Z 25011KT 9SM -RA FEW030 BKN036 OVC055 16/14 A2989 RMK AO2
                 RAB00 P0002 T01610144 =
2018-10-15 19:54 METAR KAVP 152354Z 25017G24KT 10SM BKN017 BKN022 OVC030 17/15 A2988 RMK AO2
                 RAB06E28 SLP113 P0000 60000 T01720150 10183 20150 53008 =
2018-10-15 19:09 METAR KAVP 152309Z 23009G21KT 10SM -RA SCT022 BKN028 OVC047 18/15 A2985 RMK AO2
                 RAB06 P0000 T01830150 =
2018-10-15 18:54 METAR KAVP 152254Z 23010G15KT 10SM FEW025 BKN036 OVC046 18/15 A2984 RMK AO2
                 RAB2157E10 SLP102 P0000 T01830150 =
2018-10-15 17:54 METAR KAVP 152154Z 23012G21KT 10SM FEW027 BKN040 BKN047 18/14 A2984 RMK AO2
                 RAB16E27 SLP101 P0000 T01830144 =
2018-10-15 16:54 METAR KAVP 152054Z 22008G20KT 10SM SCT023 BKN032 18/14 A2985 RMK AO2 SLP106
                 60000 T01830144 58027 =
2018-10-15 15:54 METAR KAVP 151954Z 22006KT 9SM OVC020 17/14 A2989 RMK AO2 RAB35E47 SLP118 P0000
                 T01720144 =
2018-10-15 14:54 METAR KAVP 151854Z 00000KT 7SM OVC016 16/14 A2992 RMK AO2 SLP129 T01560139 =
2018-10-15 13:54 METAR KAVP 151754Z 32003KT 7SM OVC015 15/13 A2994 RMK AO2 SLP135 60000 T01500133
                 10156 20111 56020 =
2018-10-15 12:54 METAR KAVP 151654Z 21006KT 10SM OVC010 16/13 A2995 RMK AO2 SLP143 T01560133 =
2018-10-15 12:51 METAR KAVP 151651Z VRB06KT 10SM OVC010 15/13 A2995 RMK AO2 =
2018-10-15 12:18 METAR KAVP 151618Z 21006KT 10SM OVC009 14/12 A2998 RMK AO2 T01440122 =
2018-10-15 11:54 METAR KAVP 151554Z VRB05KT 10SM OVC010 14/12 A3000 RMK AO2 SLP157 T01390122 =
2018-10-15 11:01 METAR KAVP 151501Z 22007KT 10SM OVC010 13/12 A3001 RMK AO2 T01330117 =
2018-10-15 10:54 METAR KAVP 151454Z 22006KT 10SM OVC009 13/12 A3001 RMK AO2 SLP163 60000
                 T01330117 58010 =
2018-10-15 10:06 METAR KAVP 151406Z 23007KT 10SM OVC009 13/12 A3003 RMK AO2 T01280117 =
2018-10-15 09:54 METAR KAVP 151354Z 21008KT 10SM OVC010 13/11 A3003 RMK AO2 SLP170 T01280111 =
2018-10-15 09:14 METAR KAVP 151314Z 22007KT 150V250 10SM OVC013 12/11 A3004 RMK AO2 T01220111 =
2018-10-15 08:54 METAR KAVP 151254Z 23005KT 10SM BKN015 OVC030 12/11 A3004 RMK AO2
                 RAB1156E07B19E29 SLP173 P0000 T01220106 =
2018-10-15 08:46 METAR KAVP 151246Z 22007KT 10SM BKN015 OVC028 12/11 A3004 RMK AO2
                 RAB1156E07B19E29 P0000 T01220106 =
2018-10-15 08:07 METAR KAVP 151207Z 23007KT 10SM OVC011 12/11 A3005
2018-10-15 07:54 METAR KAVP 151154Z 20006KT 9SM OVC009 11/11 A3004 RMK AO2 RAB29E46 SLP173 P0000
                 60002 70002 T01110106 10111 20072 56012 =
2018-10-15 07:51 METAR KAVP 151151Z 22006KT 9SM OVC009 11/11 A3005 RMK AO2 RAB29E46 P0000 =
2018-10-15 06:54 METAR KAVP 151054Z 27005KT 10SM OVC012 11/10 A3006 RMK AO2 RAE0958 SLP180 P0000
                 T01110100 =

Support USWX by starting your Amazon purchase here.